Time;durP1;ratioP1;P1;durP2;ratioP2;P2;SDS_P1;SDS_P2;PMS_P1;PMS_P2;Temp;Humidity;BMP_temperature;BMP_pressure;BME280_temperature;BME280_humidity;BME280_pressure;Samples;Min_cycle;Max_cycle;Signal;HPM_P1;HPM_P2
2024/05/07 00:01:34;;;;;;;0.73;0.60;;;;;;;;;;5332597;26;20347;-82
2024/05/07 00:03:59;;;;;;;0.50;0.50;;;;;;;;;;5373261;26;20074;-82
2024/05/07 00:06:25;;;;;;;0.77;0.68;;;;;;;;;;5342657;26;20005;-81
2024/05/07 00:08:51;;;;;;;3.88;1.00;;;;;;;;;;5343927;26;20012;-84
2024/05/07 00:11:16;;;;;;;1.13;0.70;;;;;;;;;;5341573;26;20001;-82
2024/05/07 00:13:42;;;;;;;0.98;0.88;;;;;;;;;;5372433;26;19998;-80
2024/05/07 00:16:07;;;;;;;0.85;0.70;;;;;;;;;;5330932;26;20000;-82
2024/05/07 00:18:34;;;;;;;1.58;1.15;;;;;;;;;;5340045;26;20846;-81
2024/05/07 00:21:00;;;;;;;1.73;1.02;;;;;;;;;;5338125;26;20444;-81
2024/05/07 00:23:28;;;;;;;1.23;0.90;;;;;;;;;;5343259;26;20011;-83
2024/05/07 00:25:53;;;;;;;0.63;0.63;;;;;;;;;;5337381;26;20096;-82
2024/05/07 00:28:19;;;;;;;0.50;0.50;;;;;;;;;;5334239;26;20009;-81
2024/05/07 00:30:44;;;;;;;0.70;0.68;;;;;;;;;;5327538;26;20005;-81
2024/05/07 00:33:10;;;;;;;1.38;1.08;;;;;;;;;;5342865;26;20000;-82
2024/05/07 00:35:37;;;;;;;0.60;0.60;;;;;;;;;;5329542;26;19998;-82
2024/05/07 00:38:03;;;;;;;0.60;0.60;;;;;;;;;;5344030;26;20075;-82
2024/05/07 00:40:28;;;;;;;1.15;0.95;;;;;;;;;;5336374;26;20037;-84
2024/05/07 00:42:54;;;;;;;2.70;1.42;;;;;;;;;;5332220;26;20008;-81
2024/05/07 00:45:20;;;;;;;1.73;1.10;;;;;;;;;;5327574;26;20001;-84
2024/05/07 00:47:47;;;;;;;2.60;1.15;;;;;;;;;;5328196;26;19997;-83
2024/05/07 00:50:14;;;;;;;0.70;0.70;;;;;;;;;;5332498;26;20005;-82
2024/05/07 00:52:40;;;;;;;1.42;1.02;;;;;;;;;;5345271;26;20009;-82
2024/05/07 00:55:08;;;;;;;1.40;1.05;;;;;;;;;;5337208;26;20063;-83
2024/05/07 00:57:34;;;;;;;1.13;0.90;;;;;;;;;;5344396;26;20012;-83
2024/05/07 01:00:03;;;;;;;2.47;0.93;;;;;;;;;;5344024;26;20078;-83
2024/05/07 01:02:28;;;;;;;4.07;1.30;;;;;;;;;;5344103;26;20100;-82
2024/05/07 01:04:54;;;;;;;0.60;0.60;;;;;;;;;;5340425;26;20009;-85
2024/05/07 01:07:20;;;;;;;0.63;0.60;;;;;;;;;;5346220;26;20011;-85
2024/05/07 01:09:45;;;;;;;1.13;0.60;;;;;;;;;;5342564;26;20019;-85
2024/05/07 01:12:14;;;;;;;1.02;0.73;;;;;;;;;;5334439;26;20001;-84
2024/05/07 01:14:42;;;;;;;1.67;0.85;;;;;;;;;;5334804;26;20008;-85
2024/05/07 01:17:07;;;;;;;0.68;0.68;;;;;;;;;;5339889;26;20117;-83
2024/05/07 01:19:33;;;;;;;5.07;1.02;;;;;;;;;;5341481;26;20005;-85
2024/05/07 01:22:07;;;;;;;1.05;0.95;;;;;;;;;;5337424;26;20009;-83
2024/05/07 01:24:33;;;;;;;1.08;0.73;;;;;;;;;;5328867;26;20523;-84
2024/05/07 01:26:58;;;;;;;1.30;0.80;;;;;;;;;;5346210;26;20032;-84
2024/05/07 01:29:24;;;;;;;2.45;1.52;;;;;;;;;;5341388;26;20008;-84
2024/05/07 01:31:51;;;;;;;1.33;1.10;;;;;;;;;;5343042;26;20009;-86
2024/05/07 01:34:17;;;;;;;6.15;1.38;;;;;;;;;;5344482;26;20000;-85
2024/05/07 01:36:42;;;;;;;2.67;0.82;;;;;;;;;;5343697;26;20062;-83
2024/05/07 01:39:08;;;;;;;1.27;0.80;;;;;;;;;;5343339;26;20576;-82
2024/05/07 01:41:34;;;;;;;1.33;0.95;;;;;;;;;;5335457;26;20015;-83
2024/05/07 01:44:00;;;;;;;1.45;1.20;;;;;;;;;;5339383;26;20009;-82
2024/05/07 01:46:26;;;;;;;2.28;1.15;;;;;;;;;;5333352;26;20001;-81
2024/05/07 01:48:51;;;;;;;1.33;0.80;;;;;;;;;;5332470;26;20041;-82
2024/05/07 01:51:16;;;;;;;1.98;0.65;;;;;;;;;;5368260;26;20016;-84
2024/05/07 01:53:42;;;;;;;1.00;0.82;;;;;;;;;;5327229;26;20001;-83
2024/05/07 01:56:08;;;;;;;2.58;1.58;;;;;;;;;;5371491;26;20042;-86
2024/05/07 01:58:33;;;;;;;2.72;0.80;;;;;;;;;;5341586;26;20429;-83
2024/05/07 02:00:59;;;;;;;0.82;0.70;;;;;;;;;;5338461;26;20000;-83
2024/05/07 02:03:25;;;;;;;2.83;1.10;;;;;;;;;;5336170;26;20009;-83
2024/05/07 02:05:51;;;;;;;1.65;1.40;;;;;;;;;;5331249;26;20078;-85
2024/05/07 02:08:16;;;;;;;1.40;1.00;;;;;;;;;;5335244;26;20016;-83
2024/05/07 02:10:42;;;;;;;1.63;1.30;;;;;;;;;;5343715;26;20437;-83
2024/05/07 02:13:08;;;;;;;2.05;1.42;;;;;;;;;;5340792;26;19997;-83
2024/05/07 02:15:33;;;;;;;1.63;1.20;;;;;;;;;;5341241;26;19997;-83
2024/05/07 02:18:01;;;;;;;1.52;1.08;;;;;;;;;;5328743;26;20002;-82
2024/05/07 02:20:27;;;;;;;1.63;1.20;;;;;;;;;;5341753;26;20000;-83
2024/05/07 02:22:53;;;;;;;1.20;0.90;;;;;;;;;;5341481;26;20023;-83
2024/05/07 02:25:18;;;;;;;1.50;0.98;;;;;;;;;;5345770;26;20573;-82
2024/05/07 02:27:46;;;;;;;1.55;1.15;;;;;;;;;;5341819;26;19996;-83
2024/05/07 02:30:12;;;;;;;1.08;0.98;;;;;;;;;;5336837;26;21580;-83
2024/05/07 02:32:37;;;;;;;1.38;1.13;;;;;;;;;;5339073;26;22675;-83
2024/05/07 02:35:03;;;;;;;3.22;1.02;;;;;;;;;;5337942;26;19996;-84
2024/05/07 02:37:30;;;;;;;0.75;0.75;;;;;;;;;;5334362;26;20001;-83
2024/05/07 02:39:56;;;;;;;1.45;0.90;;;;;;;;;;5339812;26;20391;-85
2024/05/07 02:42:21;;;;;;;2.65;1.40;;;;;;;;;;5332232;26;20012;-84
2024/05/07 02:44:47;;;;;;;1.55;1.20;;;;;;;;;;5336283;26;20079;-83
2024/05/07 02:47:12;;;;;;;1.55;1.13;;;;;;;;;;5339740;26;20012;-85
2024/05/07 02:49:38;;;;;;;1.13;0.82;;;;;;;;;;5366530;26;20087;-82
2024/05/07 02:52:04;;;;;;;0.98;0.73;;;;;;;;;;5334640;26;20016;-83
2024/05/07 02:54:29;;;;;;;1.15;0.98;;;;;;;;;;5334763;26;20001;-85
2024/05/07 02:56:55;;;;;;;1.65;0.80;;;;;;;;;;5365383;26;20037;-84
2024/05/07 02:59:20;;;;;;;1.38;1.00;;;;;;;;;;5335897;26;20013;-86
2024/05/07 03:01:46;;;;;;;2.03;0.73;;;;;;;;;;5371547;26;20075;-85
2024/05/07 03:04:11;;;;;;;1.67;1.50;;;;;;;;;;5343822;26;20489;-83
2024/05/07 03:06:41;;;;;;;3.85;1.42;;;;;;;;;;5337777;26;20005;-84
2024/05/07 03:09:08;;;;;;;1.20;1.00;;;;;;;;;;5344452;26;20370;-83
2024/05/07 03:11:41;;;;;;;1.30;1.05;;;;;;;;;;5344110;26;20461;-85
2024/05/07 03:14:12;;;;;;;2.60;1.30;;;;;;;;;;5337466;26;20075;-85
2024/05/07 03:16:39;;;;;;;2.97;1.58;;;;;;;;;;5346602;26;20449;-82
2024/05/07 03:19:05;;;;;;;3.42;1.13;;;;;;;;;;5337436;26;20001;-82
2024/05/07 03:21:31;;;;;;;0.80;0.80;;;;;;;;;;5335350;26;20017;-82
2024/05/07 03:23:59;;;;;;;1.65;0.90;;;;;;;;;;5340067;26;20056;-81
2024/05/07 03:26:25;;;;;;;2.15;0.88;;;;;;;;;;5344452;26;20005;-82
2024/05/07 03:28:50;;;;;;;1.05;0.95;;;;;;;;;;5341036;26;20024;-83
2024/05/07 03:31:15;;;;;;;1.42;1.08;;;;;;;;;;5339301;26;20396;-82
2024/05/07 03:33:41;;;;;;;2.15;1.00;;;;;;;;;;5338861;26;20009;-85
2024/05/07 03:36:09;;;;;;;2.13;0.98;;;;;;;;;;5330292;26;20017;-82
2024/05/07 03:38:34;;;;;;;9.82;1.33;;;;;;;;;;5334950;26;20015;-83
2024/05/07 03:41:00;;;;;;;1.10;0.98;;;;;;;;;;5335766;26;20445;-82
2024/05/07 03:43:25;;;;;;;1.67;0.95;;;;;;;;;;5334621;26;20001;-84
2024/05/07 03:45:54;;;;;;;1.77;1.27;;;;;;;;;;5338041;26;20056;-81
2024/05/07 03:48:22;;;;;;;8.55;1.52;;;;;;;;;;5339381;26;20440;-82
2024/05/07 03:50:48;;;;;;;2.15;1.50;;;;;;;;;;5374808;26;20102;-86
2024/05/07 03:53:13;;;;;;;2.35;1.45;;;;;;;;;;5333275;26;20013;-84
2024/05/07 03:55:39;;;;;;;1.55;1.30;;;;;;;;;;5345918;26;20020;-85
2024/05/07 03:58:08;;;;;;;1.73;1.40;;;;;;;;;;5330552;26;20016;-85
2024/05/07 04:00:34;;;;;;;1.20;0.80;;;;;;;;;;5373851;26;20001;-83
2024/05/07 04:02:59;;;;;;;1.40;1.25;;;;;;;;;;5340635;26;20348;-84
2024/05/07 04:05:25;;;;;;;1.95;1.30;;;;;;;;;;5339293;26;20013;-83
2024/05/07 04:07:50;;;;;;;2.20;1.45;;;;;;;;;;5328454;26;20013;-82
2024/05/07 04:10:18;;;;;;;0.90;0.82;;;;;;;;;;5332040;26;20019;-83
2024/05/07 04:12:43;;;;;;;2.15;1.48;;;;;;;;;;5330002;26;20552;-82
2024/05/07 04:15:09;;;;;;;1.58;1.33;;;;;;;;;;5326253;26;20009;-83
2024/05/07 04:17:34;;;;;;;1.17;1.08;;;;;;;;;;5365492;26;19998;-82
2024/05/07 04:20:00;;;;;;;1.13;1.05;;;;;;;;;;5337234;26;21652;-83
2024/05/07 04:22:25;;;;;;;1.73;1.25;;;;;;;;;;5368412;26;20001;-81
2024/05/07 04:24:51;;;;;;;1.58;1.48;;;;;;;;;;5337827;26;20436;-84
2024/05/07 04:27:16;;;;;;;3.05;1.85;;;;;;;;;;5322340;26;20002;-81
2024/05/07 04:29:41;;;;;;;3.85;1.60;;;;;;;;;;5341462;26;20005;-83
2024/05/07 04:32:07;;;;;;;1.92;1.55;;;;;;;;;;5342637;26;20075;-85
2024/05/07 04:34:32;;;;;;;1.75;1.27;;;;;;;;;;5342561;26;20001;-84
2024/05/07 04:36:58;;;;;;;2.47;1.67;;;;;;;;;;5334475;26;20002;-83
2024/05/07 04:39:23;;;;;;;1.95;1.58;;;;;;;;;;5323628;26;20337;-85
2024/05/07 04:41:49;;;;;;;1.88;1.50;;;;;;;;;;5334592;26;20000;-86
2024/05/07 04:44:14;;;;;;;2.30;1.77;;;;;;;;;;5336037;26;20005;-83
2024/05/07 04:46:39;;;;;;;2.45;2.25;;;;;;;;;;5320348;26;20453;-84
2024/05/07 04:49:05;;;;;;;1.98;1.63;;;;;;;;;;5334764;26;19997;-83
2024/05/07 04:51:30;;;;;;;3.80;1.60;;;;;;;;;;5333487;26;20033;-84
2024/05/07 04:53:55;;;;;;;2.00;1.55;;;;;;;;;;5332404;26;20974;-84
2024/05/07 04:56:22;;;;;;;2.30;1.98;;;;;;;;;;5337654;26;20012;-83
2024/05/07 04:58:47;;;;;;;2.45;2.13;;;;;;;;;;5340569;26;20074;-84
2024/05/07 05:01:13;;;;;;;1.75;1.42;;;;;;;;;;5338647;26;20041;-83
2024/05/07 05:03:38;;;;;;;3.03;2.20;;;;;;;;;;5364450;26;20002;-83
2024/05/07 05:06:05;;;;;;;2.92;2.10;;;;;;;;;;5335840;26;20350;-84
2024/05/07 05:08:32;;;;;;;2.72;1.80;;;;;;;;;;5332687;26;20001;-84
2024/05/07 05:10:59;;;;;;;2.97;2.25;;;;;;;;;;5330498;26;20041;-84
2024/05/07 05:13:24;;;;;;;3.92;2.58;;;;;;;;;;5330471;26;20006;-81
2024/05/07 05:15:50;;;;;;;3.10;1.88;;;;;;;;;;5327338;26;20365;-81
2024/05/07 05:18:15;;;;;;;1.98;1.73;;;;;;;;;;5332381;26;20139;-84
2024/05/07 05:20:41;;;;;;;1.40;1.25;;;;;;;;;;5338306;26;20019;-81
2024/05/07 05:23:14;;;;;;;3.38;2.30;;;;;;;;;;5363234;26;20021;-83
2024/05/07 05:25:40;;;;;;;2.60;2.00;;;;;;;;;;5338144;26;20015;-84
2024/05/07 05:28:06;;;;;;;4.30;2.42;;;;;;;;;;5339602;26;20001;-81
2024/05/07 05:30:31;;;;;;;1.45;1.27;;;;;;;;;;5335666;26;20053;-81
2024/05/07 05:32:57;;;;;;;2.00;1.70;;;;;;;;;;5333620;26;20001;-83
2024/05/07 05:35:22;;;;;;;3.42;2.42;;;;;;;;;;5362832;26;20073;-81
2024/05/07 05:37:48;;;;;;;2.90;1.73;;;;;;;;;;5335333;26;20011;-81
2024/05/07 05:40:13;;;;;;;2.88;2.13;;;;;;;;;;5329572;26;20352;-83
2024/05/07 05:42:39;;;;;;;3.03;2.10;;;;;;;;;;5330952;26;20041;-81
2024/05/07 05:45:05;;;;;;;2.83;1.92;;;;;;;;;;5339912;26;20009;-81
2024/05/07 05:47:30;;;;;;;2.38;1.83;;;;;;;;;;5340193;26;20005;-81
2024/05/07 05:49:56;;;;;;;2.65;1.55;;;;;;;;;;5334397;26;20012;-82
2024/05/07 05:52:21;;;;;;;2.28;1.67;;;;;;;;;;5338315;26;20005;-80
2024/05/07 05:54:47;;;;;;;2.35;1.77;;;;;;;;;;5337415;26;20000;-80
2024/05/07 05:57:12;;;;;;;2.75;1.40;;;;;;;;;;5329370;26;20012;-82
2024/05/07 05:59:37;;;;;;;2.63;1.80;;;;;;;;;;5332158;26;20004;-83
2024/05/07 06:02:06;;;;;;;4.95;2.10;;;;;;;;;;5337847;26;20001;-81
2024/05/07 06:04:31;;;;;;;2.38;1.73;;;;;;;;;;5341783;26;20013;-82
2024/05/07 06:06:57;;;;;;;5.75;1.77;;;;;;;;;;5338052;26;20008;-81
2024/05/07 06:09:22;;;;;;;4.45;2.00;;;;;;;;;;5339311;26;20251;-81
2024/05/07 06:11:47;;;;;;;2.95;1.70;;;;;;;;;;5341693;26;20004;-81
2024/05/07 06:14:13;;;;;;;2.17;1.42;;;;;;;;;;5338785;26;20005;-82
2024/05/07 06:16:38;;;;;;;1.85;1.35;;;;;;;;;;5338414;26;20081;-83
2024/05/07 06:19:04;;;;;;;1.98;1.50;;;;;;;;;;5334838;26;20077;-82
2024/05/07 06:21:29;;;;;;;2.05;0.95;;;;;;;;;;5337500;26;20021;-82
2024/05/07 06:23:58;;;;;;;2.53;1.00;;;;;;;;;;5332142;26;20011;-84
2024/05/07 06:26:23;;;;;;;2.35;1.55;;;;;;;;;;5337696;26;20001;-80
2024/05/07 06:28:48;;;;;;;1.65;1.52;;;;;;;;;;5337240;26;20005;-80
2024/05/07 06:31:15;;;;;;;2.03;1.20;;;;;;;;;;5340187;26;20052;-81
2024/05/07 06:33:42;;;;;;;3.40;1.65;;;;;;;;;;5331945;26;20008;-82
2024/05/07 06:36:07;;;;;;;1.30;0.95;;;;;;;;;;5332264;26;20000;-83
2024/05/07 06:38:33;;;;;;;3.30;2.17;;;;;;;;;;5316558;26;20002;-81
2024/05/07 06:40:58;;;;;;;1.73;1.25;;;;;;;;;;5328455;26;20019;-79
2024/05/07 06:43:24;;;;;;;1.70;1.30;;;;;;;;;;5336545;26;20599;-81
2024/05/07 06:45:51;;;;;;;6.80;1.67;;;;;;;;;;5337797;26;20001;-81
2024/05/07 06:48:16;;;;;;;1.95;1.40;;;;;;;;;;5364950;26;20020;-82
2024/05/07 06:50:42;;;;;;;0.93;0.85;;;;;;;;;;5336350;26;20001;-80
2024/05/07 06:53:08;;;;;;;2.10;1.52;;;;;;;;;;5337931;26;20001;-81
2024/05/07 06:55:35;;;;;;;2.65;1.80;;;;;;;;;;5361146;26;20002;-81
2024/05/07 06:58:01;;;;;;;2.15;1.55;;;;;;;;;;5320833;26;20020;-83
2024/05/07 07:00:26;;;;;;;2.08;1.30;;;;;;;;;;5329256;26;20009;-80
2024/05/07 07:02:51;;;;;;;1.90;1.70;;;;;;;;;;5339329;26;20004;-80
2024/05/07 07:05:17;;;;;;;1.95;1.42;;;;;;;;;;5338614;26;20016;-80
2024/05/07 07:07:42;;;;;;;2.78;1.65;;;;;;;;;;5332802;26;20012;-83
2024/05/07 07:10:08;;;;;;;12.15;2.20;;;;;;;;;;5333239;26;20005;-81
2024/05/07 07:12:36;;;;;;;2.10;1.73;;;;;;;;;;5319520;26;20001;-79
2024/05/07 07:15:02;;;;;;;2.05;1.60;;;;;;;;;;5328083;26;20004;-80
2024/05/07 07:17:27;;;;;;;1.60;1.00;;;;;;;;;;5327764;26;20086;-79
2024/05/07 07:19:53;;;;;;;2.40;1.50;;;;;;;;;;5322611;26;20006;-78
2024/05/07 07:22:18;;;;;;;1.45;1.35;;;;;;;;;;5342054;26;20386;-78
2024/05/07 07:24:43;;;;;;;2.42;1.40;;;;;;;;;;5365276;26;20029;-80
2024/05/07 07:27:09;;;;;;;1.58;1.48;;;;;;;;;;5336266;26;20810;-82
2024/05/07 07:29:34;;;;;;;2.15;1.45;;;;;;;;;;5332588;26;20293;-82
2024/05/07 07:32:00;;;;;;;2.15;1.30;;;;;;;;;;5366686;26;20349;-80
2024/05/07 07:34:26;;;;;;;2.67;1.88;;;;;;;;;;5327371;26;19997;-82
2024/05/07 07:36:52;;;;;;;1.75;1.23;;;;;;;;;;5336048;26;20013;-81
2024/05/07 07:39:21;;;;;;;1.13;1.02;;;;;;;;;;5336911;26;20553;-82
2024/05/07 07:41:48;;;;;;;2.65;1.67;;;;;;;;;;5340317;26;20441;-81
2024/05/07 07:44:13;;;;;;;1.30;1.02;;;;;;;;;;5322708;26;20116;-82
2024/05/07 07:46:39;;;;;;;2.97;1.80;;;;;;;;;;5337748;26;20009;-83
2024/05/07 07:49:05;;;;;;;10.95;2.08;;;;;;;;;;5339273;26;19997;-85
2024/05/07 07:51:31;;;;;;;1.60;1.20;;;;;;;;;;5342108;26;20000;-79
2024/05/07 07:53:59;;;;;;;7.65;2.25;;;;;;;;;;5331489;26;20026;-82
2024/05/07 07:56:24;;;;;;;2.20;1.48;;;;;;;;;;5341051;26;20461;-82
2024/05/07 07:58:50;;;;;;;2.22;1.50;;;;;;;;;;5322973;26;20004;-82
2024/05/07 08:01:16;;;;;;;2.03;1.48;;;;;;;;;;5330844;26;20095;-83
2024/05/07 08:03:41;;;;;;;2.65;1.92;;;;;;;;;;5337155;26;20001;-82
2024/05/07 08:06:07;;;;;;;1.58;1.20;;;;;;;;;;5338838;26;20088;-82
2024/05/07 08:08:32;;;;;;;1.88;1.40;;;;;;;;;;5329555;26;20013;-84
2024/05/07 08:10:57;;;;;;;4.07;2.08;;;;;;;;;;5326821;26;20019;-84
2024/05/07 08:13:23;;;;;;;3.08;1.60;;;;;;;;;;5364816;26;20020;-81
2024/05/07 08:15:48;;;;;;;2.97;1.73;;;;;;;;;;5322056;26;20009;-83
2024/05/07 08:18:16;;;;;;;3.25;2.28;;;;;;;;;;5340299;26;20451;-81
2024/05/07 08:20:45;;;;;;;1.90;1.38;;;;;;;;;;5339299;26;20001;-81
2024/05/07 08:23:14;;;;;;;2.03;1.65;;;;;;;;;;5335914;26;20061;-79
2024/05/07 08:25:40;;;;;;;3.42;2.22;;;;;;;;;;5334181;26;20013;-80
2024/05/07 08:28:05;;;;;;;3.58;2.58;;;;;;;;;;5326439;26;20005;-79
2024/05/07 08:30:30;;;;;;;4.13;2.28;;;;;;;;;;5331760;26;20754;-80
2024/05/07 08:32:56;;;;;;;3.28;1.90;;;;;;;;;;5326613;26;20001;-79
2024/05/07 08:35:21;;;;;;;2.60;1.83;;;;;;;;;;5323906;26;20020;-79
2024/05/07 08:37:47;;;;;;;2.92;1.73;;;;;;;;;;5336870;26;20437;-80
2024/05/07 08:40:14;;;;;;;3.30;2.45;;;;;;;;;;5325082;26;20005;-80
2024/05/07 08:42:39;;;;;;;3.50;2.97;;;;;;;;;;5335686;26;20345;-81
2024/05/07 08:45:08;;;;;;;3.45;2.00;;;;;;;;;;5332271;26;19997;-83
2024/05/07 08:47:35;;;;;;;5.07;1.98;;;;;;;;;;5322628;26;20016;-83
2024/05/07 08:50:01;;;;;;;4.03;2.55;;;;;;;;;;5339227;26;20012;-80
2024/05/07 08:52:28;;;;;;;3.60;2.45;;;;;;;;;;5330359;26;20071;-80
2024/05/07 08:54:53;;;;;;;6.78;2.25;;;;;;;;;;5325371;26;20012;-81
2024/05/07 08:57:19;;;;;;;3.05;1.63;;;;;;;;;;5322083;26;20075;-80
2024/05/07 08:59:46;;;;;;;8.32;2.50;;;;;;;;;;5331444;26;20005;-79
2024/05/07 09:02:12;;;;;;;2.22;2.03;;;;;;;;;;5338031;26;20023;-81
2024/05/07 09:04:37;;;;;;;2.15;1.60;;;;;;;;;;5335963;26;20460;-80
2024/05/07 09:07:03;;;;;;;3.58;1.98;;;;;;;;;;5334705;26;20091;-78
2024/05/07 09:09:28;;;;;;;3.33;1.90;;;;;;;;;;5317870;26;20112;-79
2024/05/07 09:11:58;;;;;;;3.80;2.35;;;;;;;;;;5329036;26;20008;-78
2024/05/07 09:14:24;;;;;;;3.67;2.00;;;;;;;;;;5334221;26;20267;-79
2024/05/07 09:16:51;;;;;;;7.45;2.55;;;;;;;;;;5321655;26;20338;-78
2024/05/07 09:19:16;;;;;;;3.47;2.45;;;;;;;;;;5324629;26;20012;-81
2024/05/07 09:21:42;;;;;;;4.18;1.92;;;;;;;;;;5333718;26;19997;-79
2024/05/07 09:24:08;;;;;;;4.03;2.50;;;;;;;;;;5326135;26;20449;-81
2024/05/07 09:26:47;;;;;;;2.97;2.10;;;;;;;;;;5341049;26;20012;-78
2024/05/07 09:29:14;;;;;;;3.67;1.90;;;;;;;;;;5334670;26;20059;-79
2024/05/07 09:31:45;;;;;;;3.47;2.63;;;;;;;;;;5342748;26;20001;-79
2024/05/07 09:34:15;;;;;;;6.45;2.38;;;;;;;;;;5337877;26;20004;-80
2024/05/07 09:36:47;;;;;;;3.10;2.00;;;;;;;;;;5337965;26;20005;-78
2024/05/07 09:39:23;;;;;;;2.22;1.50;;;;;;;;;;5341627;26;20005;-83
2024/05/07 09:42:00;;;;;;;2.22;1.80;;;;;;;;;;5319563;26;20021;-81
2024/05/07 09:44:36;;;;;;;2.78;1.95;;;;;;;;;;5340346;26;20016;-80
2024/05/07 09:47:04;;;;;;;1.85;1.48;;;;;;;;;;5331315;26;20436;-80
2024/05/07 09:49:30;;;;;;;3.83;2.30;;;;;;;;;;5326805;26;20001;-83
2024/05/07 09:51:59;;;;;;;2.38;1.30;;;;;;;;;;5327067;26;20047;-85
2024/05/07 09:54:26;;;;;;;5.22;2.00;;;;;;;;;;5327106;26;20477;-83
2024/05/07 09:56:54;;;;;;;2.72;1.63;;;;;;;;;;5335081;26;20067;-83
2024/05/07 09:59:19;;;;;;;2.80;1.52;;;;;;;;;;5326130;26;20479;-83
2024/05/07 10:01:46;;;;;;;3.22;1.80;;;;;;;;;;5363902;26;20014;-83
2024/05/07 10:04:11;;;;;;;1.60;1.30;;;;;;;;;;5335710;26;20011;-82
2024/05/07 10:06:37;;;;;;;3.10;1.50;;;;;;;;;;5335834;26;20000;-82
2024/05/07 10:09:02;;;;;;;2.40;1.25;;;;;;;;;;5323708;26;20446;-81
2024/05/07 10:11:28;;;;;;;2.15;1.38;;;;;;;;;;5319342;26;20013;-80
2024/05/07 10:14:05;;;;;;;3.75;1.65;;;;;;;;;;5329499;26;20017;-80
2024/05/07 10:16:33;;;;;;;2.35;1.63;;;;;;;;;;5339907;26;20005;-82
2024/05/07 10:19:08;;;;;;;3.15;1.48;;;;;;;;;;5329528;26;20012;-83
2024/05/07 10:21:35;;;;;;;2.30;1.10;;;;;;;;;;5337912;26;20000;-83
2024/05/07 10:24:02;;;;;;;1.35;1.00;;;;;;;;;;5331040;26;20016;-83
2024/05/07 10:26:28;;;;;;;1.40;1.00;;;;;;;;;;5325943;26;20377;-84
2024/05/07 10:28:56;;;;;;;2.85;1.83;;;;;;;;;;5331880;26;20012;-84
2024/05/07 10:31:23;;;;;;;2.25;1.50;;;;;;;;;;5338580;26;20056;-83
2024/05/07 10:33:50;;;;;;;1.88;1.17;;;;;;;;;;5317164;26;20075;-82
2024/05/07 10:36:18;;;;;;;1.60;1.00;;;;;;;;;;5313463;26;20449;-83
2024/05/07 10:38:45;;;;;;;1.35;1.02;;;;;;;;;;5338544;26;20326;-83
2024/05/07 10:41:11;;;;;;;3.92;1.35;;;;;;;;;;5340158;26;20001;-83
2024/05/07 10:43:39;;;;;;;1.15;1.02;;;;;;;;;;5337830;26;20348;-84
2024/05/07 10:46:23;;;;;;;1.02;0.98;;;;;;;;;;5338528;26;20070;-85
2024/05/07 10:48:54;;;;;;;2.80;1.40;;;;;;;;;;5351782;26;22382;-83
2024/05/07 10:51:22;;;;;;;2.97;1.42;;;;;;;;;;5335161;26;20008;-80
2024/05/07 10:53:57;;;;;;;1.55;1.13;;;;;;;;;;5337903;26;20005;-84
2024/05/07 10:56:31;;;;;;;1.40;1.13;;;;;;;;;;5329572;26;20009;-84
2024/05/07 10:59:05;;;;;;;5.78;1.48;;;;;;;;;;5326331;26;20057;-83
2024/05/07 11:01:31;;;;;;;2.03;1.30;;;;;;;;;;5365688;26;20008;-81
2024/05/07 11:03:57;;;;;;;1.85;1.20;;;;;;;;;;5333718;26;20009;-80
2024/05/07 11:06:22;;;;;;;1.50;1.05;;;;;;;;;;5328879;26;20023;-82
2024/05/07 11:08:51;;;;;;;1.38;1.08;;;;;;;;;;5330274;26;20009;-81
2024/05/07 11:11:20;;;;;;;1.05;0.80;;;;;;;;;;5335746;26;20005;-83
2024/05/07 11:13:46;;;;;;;2.75;1.35;;;;;;;;;;5332593;26;20001;-84
2024/05/07 11:16:16;;;;;;;0.77;0.77;;;;;;;;;;5339837;26;20001;-84
2024/05/07 11:18:50;;;;;;;3.42;0.80;;;;;;;;;;5333884;26;20009;-83
2024/05/07 11:21:16;;;;;;;1.65;1.00;;;;;;;;;;5338546;26;20060;-84
2024/05/07 11:23:43;;;;;;;0.70;0.70;;;;;;;;;;5337378;26;20008;-82
2024/05/07 11:26:13;;;;;;;0.70;0.70;;;;;;;;;;5328519;26;20019;-81
2024/05/07 11:28:39;;;;;;;2.80;1.00;;;;;;;;;;5368805;26;20001;-84
2024/05/07 11:31:04;;;;;;;1.15;0.80;;;;;;;;;;5338731;26;20019;-83
2024/05/07 11:33:30;;;;;;;0.93;0.85;;;;;;;;;;5335538;26;20000;-82
2024/05/07 11:35:56;;;;;;;2.80;0.80;;;;;;;;;;5338514;26;20457;-83
2024/05/07 11:38:22;;;;;;;0.80;0.70;;;;;;;;;;5324235;26;20010;-81
2024/05/07 11:40:47;;;;;;;11.60;1.55;;;;;;;;;;5323403;26;20099;-79
2024/05/07 11:43:13;;;;;;;0.73;0.73;;;;;;;;;;5342094;26;20001;-82
2024/05/07 11:45:38;;;;;;;1.40;1.00;;;;;;;;;;5330573;26;20330;-81
2024/05/07 11:48:05;;;;;;;2.65;1.10;;;;;;;;;;5336734;26;20001;-82
2024/05/07 11:50:31;;;;;;;0.82;0.68;;;;;;;;;;5336512;26;20000;-85
2024/05/07 11:52:57;;;;;;;1.60;0.80;;;;;;;;;;5329664;26;20008;-83
2024/05/07 11:55:23;;;;;;;0.75;0.60;;;;;;;;;;5330585;26;20048;-84
2024/05/07 11:57:49;;;;;;;2.22;0.57;;;;;;;;;;5340497;26;20013;-84
2024/05/07 12:00:16;;;;;;;0.93;0.82;;;;;;;;;;5327843;26;20008;-83
2024/05/07 12:02:41;;;;;;;0.70;0.70;;;;;;;;;;5324908;26;19996;-84
2024/05/07 12:05:08;;;;;;;4.78;1.20;;;;;;;;;;5332974;26;20008;-79
2024/05/07 12:07:34;;;;;;;2.08;1.30;;;;;;;;;;5339491;26;20027;-83
2024/05/07 12:10:01;;;;;;;1.58;0.80;;;;;;;;;;5333299;26;20012;-84
2024/05/07 12:12:26;;;;;;;1.20;0.77;;;;;;;;;;5332934;26;20315;-78
2024/05/07 12:14:51;;;;;;;0.70;0.70;;;;;;;;;;5338195;26;20006;-82
2024/05/07 12:17:19;;;;;;;1.02;0.85;;;;;;;;;;5330751;26;20004;-82
2024/05/07 12:19:44;;;;;;;1.35;0.90;;;;;;;;;;5318185;26;20457;-80
2024/05/07 12:27:38;;;;;;;1.55;0.77;;;;;;;;;;5337196;26;20004;-80
2024/05/07 12:30:04;;;;;;;0.93;0.85;;;;;;;;;;5332755;26;20005;-79
2024/05/07 12:32:30;;;;;;;0.80;0.77;;;;;;;;;;5322644;26;20446;-80
2024/05/07 12:34:55;;;;;;;1.02;0.80;;;;;;;;;;5326931;26;20484;-80
2024/05/07 12:37:22;;;;;;;0.85;0.60;;;;;;;;;;5337077;26;20001;-81
2024/05/07 12:39:47;;;;;;;6.95;1.00;;;;;;;;;;5326639;26;20008;-81
2024/05/07 12:42:13;;;;;;;0.73;0.73;;;;;;;;;;5327358;26;20008;-83
2024/05/07 12:44:38;;;;;;;0.60;0.60;;;;;;;;;;5336326;26;19998;-82
2024/05/07 12:47:03;;;;;;;1.38;0.95;;;;;;;;;;5333423;26;20007;-83
2024/05/07 12:49:29;;;;;;;1.20;0.80;;;;;;;;;;5320517;26;20587;-80
2024/05/07 12:51:54;;;;;;;1.35;0.80;;;;;;;;;;5322768;26;20017;-80
2024/05/07 12:54:20;;;;;;;1.00;0.80;;;;;;;;;;5333871;26;20099;-80
2024/05/07 12:56:45;;;;;;;0.63;0.50;;;;;;;;;;5332536;26;20415;-81
2024/05/07 12:59:17;;;;;;;2.75;1.23;;;;;;;;;;5326125;26;20421;-80
2024/05/07 13:01:43;;;;;;;0.68;0.63;;;;;;;;;;5319288;26;20462;-81
2024/05/07 13:04:08;;;;;;;0.90;0.82;;;;;;;;;;5327054;26;20001;-84
2024/05/07 13:06:34;;;;;;;1.20;1.10;;;;;;;;;;5364632;26;20008;-84
2024/05/07 13:08:59;;;;;;;0.73;0.73;;;;;;;;;;5338669;26;19997;-85
2024/05/07 13:11:24;;;;;;;0.60;0.60;;;;;;;;;;5337932;26;20441;-82
2024/05/07 13:13:50;;;;;;;3.03;0.80;;;;;;;;;;5323994;26;20067;-81
2024/05/07 13:16:17;;;;;;;1.15;0.70;;;;;;;;;;5318900;26;20345;-81
2024/05/07 13:18:42;;;;;;;0.90;0.82;;;;;;;;;;5361763;26;19993;-81
2024/05/07 13:21:08;;;;;;;2.15;1.00;;;;;;;;;;5338673;26;19997;-80
2024/05/07 13:23:33;;;;;;;0.60;0.55;;;;;;;;;;5323571;26;20015;-81
2024/05/07 13:25:59;;;;;;;1.40;0.60;;;;;;;;;;5327169;26;20020;-81
2024/05/07 13:28:24;;;;;;;1.10;0.70;;;;;;;;;;5326519;26;20088;-83
2024/05/07 13:30:49;;;;;;;2.35;0.98;;;;;;;;;;5327279;26;20001;-81
2024/05/07 13:33:15;;;;;;;3.63;1.13;;;;;;;;;;5329189;26;20013;-80
2024/05/07 13:35:42;;;;;;;0.70;0.70;;;;;;;;;;5337128;26;20449;-81
2024/05/07 13:38:09;;;;;;;0.65;0.55;;;;;;;;;;5328433;26;20322;-79
2024/05/07 13:40:34;;;;;;;1.02;0.60;;;;;;;;;;5330408;26;19997;-77
2024/05/07 13:43:00;;;;;;;1.42;0.70;;;;;;;;;;5326124;26;20403;-78
2024/05/07 13:45:25;;;;;;;0.77;0.68;;;;;;;;;;5327543;26;20009;-78
2024/05/07 13:47:51;;;;;;;0.68;0.63;;;;;;;;;;5335935;26;20000;-82
2024/05/07 13:50:16;;;;;;;0.95;0.50;;;;;;;;;;5336842;26;19996;-81
2024/05/07 13:52:42;;;;;;;0.70;0.50;;;;;;;;;;5339309;26;20000;-82
2024/05/07 13:55:07;;;;;;;1.27;0.80;;;;;;;;;;5330565;26;19997;-81
2024/05/07 13:57:33;;;;;;;1.13;0.80;;;;;;;;;;5316677;26;20006;-79
2024/05/07 13:59:58;;;;;;;1.42;0.68;;;;;;;;;;5337421;26;20020;-79
2024/05/07 14:02:24;;;;;;;1.23;0.57;;;;;;;;;;5323604;26;20408;-79
2024/05/07 14:04:49;;;;;;;1.95;0.68;;;;;;;;;;5338368;26;20433;-80
2024/05/07 14:07:16;;;;;;;1.55;0.80;;;;;;;;;;5322461;26;20001;-81
2024/05/07 14:09:42;;;;;;;1.48;0.65;;;;;;;;;;5338935;26;20012;-78
2024/05/07 14:12:07;;;;;;;0.95;0.63;;;;;;;;;;5338128;26;20013;-82
2024/05/07 14:14:33;;;;;;;1.00;0.77;;;;;;;;;;5335442;26;20001;-81
2024/05/07 14:16:58;;;;;;;1.65;0.38;;;;;;;;;;5336270;26;20013;-80
2024/05/07 14:19:25;;;;;;;0.98;0.88;;;;;;;;;;5337250;26;20374;-81
2024/05/07 14:21:50;;;;;;;1.23;0.70;;;;;;;;;;5335397;26;20527;-80
2024/05/07 14:24:16;;;;;;;1.40;0.70;;;;;;;;;;5335354;26;20009;-80
2024/05/07 14:26:41;;;;;;;2.65;0.80;;;;;;;;;;5339534;26;20012;-79
2024/05/07 14:29:06;;;;;;;1.67;0.88;;;;;;;;;;5332501;26;20002;-78
2024/05/07 14:31:32;;;;;;;1.45;0.70;;;;;;;;;;5329286;26;20006;-81
2024/05/07 14:33:57;;;;;;;1.52;0.60;;;;;;;;;;5320551;26;20001;-80
2024/05/07 14:36:23;;;;;;;1.70;0.80;;;;;;;;;;5328309;26;20001;-80
2024/05/07 14:38:49;;;;;;;1.23;1.05;;;;;;;;;;5335798;26;20016;-79
2024/05/07 14:41:14;;;;;;;1.75;0.80;;;;;;;;;;5329833;26;19998;-82
2024/05/07 14:43:40;;;;;;;1.25;0.70;;;;;;;;;;5336511;26;20011;-81